KGRB/GRB METAR and TAF weather

Enter ICAO airport designator
Station Type Date Time Source
KGRB METAR 2022/06/27 17:53 UTC NOAA

KGRB 271753Z 34011KT 10SM CLR 23/06 A3022 RMK AO2 SLP232 T02280061 10228 20150 50003


Station Type Date Time Source
KGRB Decoded METAR 2022/06/27 17:53 UTC NOAA

AUSTIN STRAUBEL INTERNATIONAL AIRPORT , WI, United States (KGRB) 44-29N 088-08W 205M
Jun 27, 2022 - 01:53 PM EDT / 2022.06.27 1753 UTC
Wind: from the NNW (340 degrees) at 13 MPH (11 KT):0
Visibility: 10 mile(s):0
Sky conditions: clear
Temperature: 73.0 F (22.8 C)
Dew Point: 43.0 F (6.1 C)
Relative Humidity: 33%
Pressure (altimeter): 30.22 in. Hg (1023 hPa)
Pressure tendency: 0.01 inches (0.3 hPa) higher than three hours ago
ob: KGRB 271753Z 34011KT 10SM CLR 23/06 A3022 RMK AO2 SLP232 T02280061 10228 20150 50003
cycle: 18

Station Type Date Time Source
KGRB TAF 2022/06/27 18:40 UTC NOAA

TAF KGRB 271738Z 2718/2818 32010G17KT P6SM SKC
FM272100 29006G15KT P6SM SKC
FM280000 22005KT P6SM SKC
FM281300 24008G15KT P6SM SCT050 BKN120

Example: see airport list